createdAt,value
2019-02-17T00:02:25.399Z,60.31
2019-02-17T00:05:44.159Z,59.90
2019-02-17T00:08:52.681Z,60.26
2019-02-17T00:12:01.406Z,60.58
2019-02-17T00:15:10.315Z,60.77
2019-02-17T00:18:18.937Z,61.35
2019-02-17T00:21:27.835Z,61.69
2019-02-17T00:24:36.515Z,61.76
2019-02-17T00:27:45.782Z,62.01
2019-02-17T00:30:54.516Z,62.24
2019-02-17T00:34:03.139Z,62.42
2019-02-17T00:37:11.207Z,62.84
2019-02-17T00:40:19.908Z,63.22
2019-02-17T00:43:38.774Z,63.56
2019-02-17T00:46:47.396Z,64.45
2019-02-17T00:49:56.100Z,64.84
2019-02-17T00:53:04.754Z,65.02
2019-02-17T00:56:13.363Z,65.04
2019-02-17T00:59:22.073Z,65.40
2019-02-17T01:02:30.674Z,65.77
2019-02-17T01:05:39.181Z,66.06
2019-02-17T01:08:58.134Z,66.49
2019-02-17T01:12:06.743Z,66.89
2019-02-17T01:15:15.560Z,67.02
2019-02-17T01:18:24.363Z,66.60
2019-02-17T01:21:33.131Z,66.47
2019-02-17T01:24:41.741Z,66.56
2019-02-17T01:27:50.341Z,67.30
2019-02-17T01:30:59.045Z,67.04
2019-02-17T01:34:11.697Z,67.26
2019-02-17T01:37:20.303Z,67.04
2019-02-17T01:40:29.019Z,67.10
2019-02-17T01:43:37.632Z,66.98
2019-02-17T01:46:46.253Z,67.01
2019-02-17T01:49:54.997Z,67.09
2019-02-17T01:53:03.588Z,67.25
2019-02-17T01:56:22.369Z,67.03
2019-02-17T01:59:31.114Z,67.05
2019-02-17T02:02:39.779Z,67.11
2019-02-17T02:05:48.403Z,67.41
2019-02-17T02:08:56.994Z,67.78
2019-02-17T02:12:05.981Z,68.15
2019-02-17T02:15:14.787Z,68.39
2019-02-17T02:18:23.340Z,68.73
2019-02-17T02:21:31.953Z,68.89
2019-02-17T02:24:40.444Z,69.07
2019-02-17T02:27:59.252Z,69.23
2019-02-17T02:31:07.998Z,69.48
2019-02-17T02:34:16.560Z,69.74
2019-02-17T02:37:25.173Z,70.00
2019-02-17T02:40:33.862Z,70.18
2019-02-17T02:43:42.458Z,70.01
2019-02-17T02:46:50.966Z,70.09
2019-02-17T02:50:12.351Z,69.37
2019-02-17T02:53:20.877Z,69.03
2019-02-17T02:56:29.493Z,68.75
2019-02-17T02:59:52.450Z,68.62
2019-02-17T03:02:58.753Z,68.57
2019-02-17T03:06:24.891Z,68.21
2019-02-17T03:09:33.595Z,68.03
2019-02-17T03:12:42.213Z,68.12
2019-02-17T03:15:50.799Z,68.38
2019-02-17T03:18:59.949Z,67.77
2019-02-17T03:22:08.584Z,67.35
2019-02-17T03:25:17.185Z,67.32
2019-02-17T03:28:24.204Z,67.05
2019-02-17T03:31:32.881Z,66.93
2019-02-17T03:34:41.755Z,66.85
2019-02-17T03:38:00.572Z,66.80
2019-02-17T03:41:09.283Z,67.02
2019-02-17T03:44:19.215Z,66.87
2019-02-17T03:47:27.836Z,67.06
2019-02-17T03:50:36.478Z,67.05
2019-02-17T03:53:45.001Z,67.24
2019-02-17T03:57:03.913Z,67.30
2019-02-17T04:00:16.984Z,67.71
2019-02-17T04:03:23.032Z,67.65
2019-02-17T04:06:31.637Z,67.55
2019-02-17T04:09:40.319Z,67.95
2019-02-17T04:12:48.925Z,67.95
2019-02-17T04:15:57.428Z,68.28
2019-02-17T04:19:06.041Z,68.30
2019-02-17T04:22:24.849Z,68.23
2019-02-17T04:25:33.476Z,68.32
2019-02-17T04:28:42.001Z,68.50
2019-02-17T04:31:50.716Z,68.61
2019-02-17T04:34:59.348Z,69.02
2019-02-17T04:38:07.983Z,68.99
2019-02-17T04:41:18.194Z,68.61
2019-02-17T04:44:37.012Z,68.23
2019-02-17T04:47:45.645Z,68.12
2019-02-17T04:50:54.309Z,67.53
2019-02-17T04:54:02.924Z,67.43
2019-02-17T04:57:11.498Z,67.44
2019-02-17T05:00:20.213Z,67.00
2019-02-17T05:03:28.827Z,67.07
2019-02-17T05:06:47.550Z,67.12
2019-02-17T05:09:56.203Z,67.08
2019-02-17T05:13:04.735Z,67.10
2019-02-17T05:16:13.240Z,67.28
2019-02-17T05:19:21.865Z,67.77
2019-02-17T05:22:40.647Z,67.87
2019-02-17T05:25:49.234Z,67.50
2019-02-17T05:28:57.857Z,67.75
2019-02-17T05:32:06.466Z,68.20
2019-02-17T05:35:15.071Z,68.58
2019-02-17T05:38:24.788Z,68.33
2019-02-17T05:41:33.482Z,68.51
2019-02-17T05:44:41.993Z,68.53
2019-02-17T05:47:50.596Z,68.59
2019-02-17T05:50:59.465Z,68.27
2019-02-17T05:54:07.956Z,68.24
2019-02-17T05:57:16.547Z,68.35
2019-02-17T06:00:28.954Z,67.94
2019-02-17T06:03:37.548Z,68.22
2019-02-17T06:06:46.020Z,67.57
2019-02-17T06:10:06.211Z,68.60
2019-02-17T06:13:14.848Z,69.56
2019-02-17T06:16:23.487Z,68.88
2019-02-17T06:19:30.711Z,69.05
2019-02-17T06:22:39.180Z,69.40
2019-02-17T06:25:47.770Z,70.32
2019-02-17T06:29:06.533Z,69.95
2019-02-17T06:32:15.113Z,69.39
2019-02-17T06:35:23.626Z,68.33
2019-02-17T06:38:32.212Z,68.54
2019-02-17T06:41:40.878Z,68.15
2019-02-17T06:44:49.388Z,69.00
2019-02-17T06:48:08.595Z,69.08
2019-02-17T06:51:17.292Z,69.99
2019-02-17T06:54:25.811Z,70.22
2019-02-17T06:57:38.443Z,70.46
2019-02-17T07:00:49.523Z,70.56
2019-02-17T07:03:58.116Z,70.91
2019-02-17T07:07:07.214Z,70.02
2019-02-17T07:10:15.851Z,69.95
2019-02-17T07:13:24.465Z,70.66
2019-02-17T07:16:33.051Z,70.64
2019-02-17T07:19:52.011Z,70.65
2019-02-17T07:23:00.479Z,70.35
2019-02-17T07:26:09.091Z,71.01
2019-02-17T07:29:17.738Z,70.94
2019-02-17T07:32:26.234Z,70.39
2019-02-17T07:35:34.856Z,70.91
2019-02-17T07:38:53.722Z,71.18
2019-02-17T07:42:02.399Z,70.88
2019-02-17T07:45:10.980Z,71.58
2019-02-17T07:48:19.572Z,72.03
2019-02-17T07:51:32.994Z,72.07
2019-02-17T07:54:41.542Z,71.42
2019-02-17T07:58:00.332Z,71.36
2019-02-17T08:01:08.999Z,70.46
2019-02-17T08:04:17.485Z,71.23
2019-02-17T08:07:26.080Z,70.92
2019-02-17T08:10:34.742Z,70.79
2019-02-17T08:13:43.337Z,70.00
2019-02-17T08:16:51.923Z,70.21
2019-02-17T08:20:12.783Z,70.84
2019-02-17T08:23:21.254Z,69.71
2019-02-17T08:26:29.891Z,70.16
2019-02-17T08:29:38.563Z,69.47
2019-02-17T08:32:47.181Z,69.22
2019-02-17T08:35:55.804Z,68.28
2019-02-17T08:39:05.582Z,68.10
2019-02-17T08:42:14.224Z,67.29
2019-02-17T08:45:22.812Z,65.24
2019-02-17T08:48:31.417Z,64.51
2019-02-17T08:51:40.042Z,62.33
2019-02-17T08:54:48.617Z,61.35
2019-02-17T08:57:57.373Z,59.33
2019-02-17T09:01:06.013Z,58.92
2019-02-17T09:04:24.819Z,59.65
2019-02-17T09:07:33.321Z,59.80
2019-02-17T09:10:41.926Z,59.79
2019-02-17T09:13:50.552Z,58.52
2019-02-17T09:16:59.042Z,57.38
2019-02-17T09:20:17.921Z,55.57
2019-02-17T09:23:26.458Z,55.74
2019-02-17T09:26:34.984Z,54.57
2019-02-17T09:29:43.608Z,52.54
2019-02-17T09:32:52.110Z,51.89
2019-02-17T09:36:10.740Z,49.26
2019-02-17T09:39:19.391Z,48.74
2019-02-17T09:42:27.952Z,47.28
2019-02-17T09:45:36.513Z,46.79
2019-02-17T09:48:45.121Z,45.48
2019-02-17T09:51:53.717Z,44.02
2019-02-17T09:55:12.491Z,43.78
2019-02-17T09:58:21.955Z,44.99
2019-02-17T10:01:42.665Z,44.44
2019-02-17T10:04:50.971Z,44.93
2019-02-17T10:07:59.882Z,44.55
2019-02-17T10:11:08.971Z,43.80
2019-02-17T10:14:17.893Z,43.94
2019-02-17T10:17:28.204Z,43.54
2019-02-17T10:20:36.811Z,44.77
2019-02-17T10:23:45.420Z,45.05
2019-02-17T10:26:54.331Z,45.27
2019-02-17T10:30:03.590Z,45.56
2019-02-17T10:33:12.973Z,45.30
2019-02-17T10:36:21.494Z,44.80
2019-02-17T10:39:31.650Z,46.08
2019-02-17T10:42:50.466Z,46.64
2019-02-17T10:45:59.042Z,45.96
2019-02-17T10:49:07.768Z,46.16
2019-02-17T10:52:16.393Z,45.09
2019-02-17T10:55:24.873Z,45.29
2019-02-17T10:58:33.399Z,44.90
2019-02-17T11:01:52.287Z,44.23
2019-02-17T11:05:00.840Z,45.38
2019-02-17T11:08:09.463Z,44.58
2019-02-17T11:11:18.027Z,43.74
2019-02-17T11:14:26.535Z,45.13
2019-02-17T11:17:45.148Z,44.94
2019-02-17T11:20:53.696Z,45.13
2019-02-17T11:24:02.225Z,44.00
2019-02-17T11:27:10.849Z,42.82
2019-02-17T11:30:19.612Z,40.14
2019-02-17T11:33:28.249Z,38.64
2019-02-17T11:36:36.860Z,37.15
2019-02-17T11:39:55.813Z,36.26
2019-02-17T11:43:04.447Z,36.47
2019-02-17T11:46:13.187Z,37.47
2019-02-17T11:49:21.909Z,36.48
2019-02-17T11:52:32.339Z,35.05
2019-02-17T11:55:40.482Z,35.47
2019-02-17T11:58:49.082Z,35.50
2019-02-17T12:02:27.090Z,33.35
2019-02-17T12:05:35.704Z,32.18
2019-02-17T12:08:48.883Z,32.41
2019-02-17T12:11:57.475Z,33.42
2019-02-17T12:15:06.790Z,31.75
2019-02-17T12:18:15.666Z,32.81
2019-02-17T12:21:52.031Z,31.16
2019-02-17T12:25:07.271Z,31.44
2019-02-17T12:28:23.819Z,31.06
2019-02-17T12:31:36.487Z,31.66
2019-02-17T12:34:55.285Z,30.67
2019-02-17T12:38:03.780Z,29.45
2019-02-17T12:41:12.443Z,29.34
2019-02-17T12:44:21.097Z,29.44
2019-02-17T12:47:29.713Z,29.87
2019-02-17T12:50:38.369Z,30.64
2019-02-17T12:53:47.883Z,29.89
2019-02-17T12:56:56.932Z,29.42
2019-02-17T13:00:07.014Z,30.05
2019-02-17T13:03:16.073Z,30.27
2019-02-17T13:06:26.562Z,29.71
2019-02-17T13:09:34.965Z,30.31
2019-02-17T13:12:43.590Z,28.73
2019-02-17T13:15:52.101Z,28.86
2019-02-17T13:19:00.685Z,27.61
2019-02-17T13:22:19.828Z,26.51
2019-02-17T13:25:38.797Z,26.94
2019-02-17T13:28:47.426Z,26.55
2019-02-17T13:31:56.084Z,26.89
2019-02-17T13:35:05.194Z,25.51
2019-02-17T13:38:13.751Z,25.50
2019-02-17T13:41:22.412Z,26.03
2019-02-17T13:44:30.985Z,25.93
2019-02-17T13:47:39.508Z,25.91
2019-02-17T13:50:58.222Z,26.27
2019-02-17T13:54:06.898Z,26.95
2019-02-17T13:57:15.453Z,25.32
2019-02-17T14:00:24.149Z,24.73
2019-02-17T14:03:32.655Z,24.97
2019-02-17T14:06:41.762Z,25.18
2019-02-17T14:09:50.355Z,26.47
2019-02-17T14:12:58.891Z,26.58
2019-02-17T14:16:07.534Z,28.12
2019-02-17T14:19:26.308Z,28.94
2019-02-17T14:22:34.930Z,29.88
2019-02-17T14:25:43.649Z,30.76
2019-02-17T14:28:52.311Z,32.94
2019-02-17T14:32:00.846Z,33.63
2019-02-17T14:35:09.696Z,34.52
2019-02-17T14:38:18.378Z,34.97
2019-02-17T14:41:27.132Z,35.44
2019-02-17T14:44:35.790Z,36.33
2019-02-17T14:47:45.636Z,37.12
2019-02-17T14:50:54.524Z,38.12
2019-02-17T14:54:03.348Z,37.75
2019-02-17T14:57:13.168Z,38.13
2019-02-17T15:00:21.721Z,38.23
2019-02-17T15:03:30.332Z,37.79
2019-02-17T15:06:44.129Z,38.32
2019-02-17T15:09:54.193Z,38.43
2019-02-17T15:13:02.832Z,39.76
2019-02-17T15:16:21.748Z,39.58
2019-02-17T15:19:30.491Z,39.56
2019-02-17T15:22:39.012Z,40.08
2019-02-17T15:25:47.611Z,40.13
2019-02-17T15:28:56.208Z,40.39
2019-02-17T15:32:04.775Z,41.60
2019-02-17T15:35:27.714Z,42.19
2019-02-17T15:38:43.451Z,42.85
2019-02-17T15:41:52.569Z,43.19
2019-02-17T15:45:01.188Z,43.23
2019-02-17T15:48:09.982Z,43.24
2019-02-17T15:51:18.672Z,44.03
2019-02-17T15:54:29.829Z,43.98
2019-02-17T15:57:38.862Z,44.51
2019-02-17T16:00:47.505Z,44.28
2019-02-17T16:03:56.108Z,45.18
2019-02-17T16:07:04.736Z,45.31
2019-02-17T16:10:13.466Z,45.83
2019-02-17T16:13:23.192Z,45.45
2019-02-17T16:16:42.228Z,45.34
2019-02-17T16:19:50.938Z,45.87
2019-02-17T16:22:59.456Z,45.34
2019-02-17T16:26:07.950Z,45.92
2019-02-17T16:29:15.056Z,45.97
2019-02-17T16:32:23.594Z,46.69
2019-02-17T16:35:42.305Z,46.83
2019-02-17T16:38:50.916Z,46.83
2019-02-17T16:41:59.570Z,46.69
2019-02-17T16:45:11.145Z,47.41
2019-02-17T16:48:19.768Z,47.23
2019-02-17T16:51:28.439Z,47.34
2019-02-17T16:54:54.811Z,47.97
2019-02-17T16:58:03.518Z,47.90
2019-02-17T17:01:12.202Z,48.36
2019-02-17T17:04:21.490Z,48.51
2019-02-17T17:07:28.552Z,49.23
2019-02-17T17:10:37.204Z,49.64
2019-02-17T17:13:45.854Z,49.84
2019-02-17T17:16:54.518Z,50.47
2019-02-17T17:20:03.149Z,51.13
2019-02-17T17:23:11.674Z,51.05
2019-02-17T17:26:20.185Z,51.42
2019-02-17T17:29:46.528Z,51.62
2019-02-17T17:32:56.664Z,51.94
2019-02-17T17:36:05.473Z,52.33
2019-02-17T17:39:14.055Z,52.56
2019-02-17T17:42:22.606Z,52.50
2019-02-17T17:45:31.276Z,52.77
2019-02-17T17:48:39.751Z,53.13
2019-02-17T17:52:01.389Z,54.11
2019-02-17T17:55:10.376Z,54.07
2019-02-17T17:58:18.890Z,53.99
2019-02-17T18:01:27.573Z,54.70
2019-02-17T18:04:36.159Z,54.84
2019-02-17T18:07:44.697Z,54.89
2019-02-17T18:10:53.343Z,54.98
2019-02-17T18:14:01.921Z,55.55
2019-02-17T18:17:24.753Z,55.75
2019-02-17T18:20:33.361Z,56.00
2019-02-17T18:23:42.245Z,56.37
2019-02-17T18:26:50.770Z,56.85
2019-02-17T18:30:00.355Z,57.07
2019-02-17T18:33:19.299Z,57.33
2019-02-17T18:36:28.059Z,57.41
2019-02-17T18:39:36.650Z,57.66
2019-02-17T18:42:47.052Z,57.88
2019-02-17T18:45:55.625Z,58.13
2019-02-17T18:49:04.234Z,58.09
2019-02-17T18:52:12.894Z,58.56
2019-02-17T18:55:22.016Z,58.78
2019-02-17T18:58:30.689Z,59.08
2019-02-17T19:01:39.935Z,59.43
2019-02-17T19:04:48.435Z,59.01
2019-02-17T19:07:56.953Z,59.10
2019-02-17T19:11:05.563Z,59.34
2019-02-17T19:14:24.311Z,60.32
2019-02-17T19:17:33.103Z,60.32
2019-02-17T19:20:41.837Z,60.32
2019-02-17T19:23:50.375Z,60.78
2019-02-17T19:26:58.982Z,60.56
2019-02-17T19:30:08.462Z,60.97
2019-02-17T19:33:16.972Z,61.23
2019-02-17T19:36:25.614Z,61.68
2019-02-17T19:39:34.320Z,61.41
2019-02-17T19:42:42.963Z,61.45
2019-02-17T19:45:51.443Z,62.13
2019-02-17T19:49:00.080Z,62.27
2019-02-17T19:52:18.867Z,62.46
2019-02-17T19:55:27.379Z,62.82
2019-02-17T19:58:36.001Z,63.34
2019-02-17T20:01:44.725Z,63.36
2019-02-17T20:05:06.956Z,63.72
2019-02-17T20:08:17.046Z,63.59
2019-02-17T20:11:25.664Z,64.06
2019-02-17T20:14:34.287Z,64.37
2019-02-17T20:17:43.037Z,64.08
2019-02-17T20:20:51.718Z,63.96
2019-02-17T20:24:00.330Z,64.19
2019-02-17T20:27:08.911Z,64.25
2019-02-17T20:30:27.854Z,64.48
2019-02-17T20:33:36.356Z,65.44
2019-02-17T20:36:44.872Z,65.77
2019-02-17T20:39:53.622Z,67.02
2019-02-17T20:43:02.213Z,66.91
2019-02-17T20:46:10.830Z,67.40
2019-02-17T20:49:29.724Z,67.63
2019-02-17T20:52:38.243Z,67.44
2019-02-17T20:55:46.752Z,67.33
2019-02-17T20:58:56.375Z,67.21
2019-02-17T21:02:15.347Z,67.32
2019-02-17T21:05:23.948Z,67.45
2019-02-17T21:08:32.567Z,67.52
2019-02-17T21:11:41.229Z,67.67
2019-02-17T21:14:49.828Z,67.87
2019-02-17T21:17:58.429Z,67.97
2019-02-17T21:21:07.101Z,68.67
2019-02-17T21:24:25.963Z,69.01
2019-02-17T21:27:34.465Z,69.92
2019-02-17T21:30:43.167Z,70.05
2019-02-17T21:33:51.756Z,70.00
2019-02-17T21:37:00.292Z,69.93
2019-02-17T21:40:11.538Z,69.95
2019-02-17T21:43:20.040Z,69.77
2019-02-17T21:46:28.676Z,69.79
2019-02-17T21:49:37.425Z,70.01
2019-02-17T21:52:45.901Z,70.09
2019-02-17T21:55:54.537Z,70.90
2019-02-17T21:59:13.310Z,70.86
2019-02-17T22:02:22.093Z,70.63
2019-02-17T22:05:30.705Z,70.43
2019-02-17T22:08:39.322Z,70.20
2019-02-17T22:11:48.005Z,71.26
2019-02-17T22:14:56.620Z,71.83
2019-02-17T22:18:05.200Z,71.91
2019-02-17T22:21:13.904Z,71.56
2019-02-17T22:24:32.614Z,71.50
2019-02-17T22:27:41.213Z,71.46
2019-02-17T22:30:49.959Z,71.61
2019-02-17T22:33:58.545Z,71.99
2019-02-17T22:37:07.133Z,71.85
2019-02-17T22:40:16.009Z,71.85
2019-02-17T22:43:24.605Z,71.94
2019-02-17T22:46:33.122Z,72.04
2019-02-17T22:49:52.065Z,72.45
2019-02-17T22:53:00.665Z,72.84
2019-02-17T22:56:09.317Z,72.57
2019-02-17T22:59:17.973Z,72.29
2019-02-17T23:02:26.863Z,72.14
2019-02-17T23:05:35.371Z,72.52
2019-02-17T23:08:43.944Z,72.54
2019-02-17T23:11:52.647Z,72.53
2019-02-17T23:15:11.522Z,72.34
2019-02-17T23:18:20.131Z,72.50
2019-02-17T23:21:28.948Z,72.79
2019-02-17T23:24:37.530Z,73.09
2019-02-17T23:27:46.330Z,73.02
2019-02-17T23:30:55.025Z,73.06
2019-02-17T23:34:03.608Z,72.79
2019-02-17T23:37:12.220Z,72.94
2019-02-17T23:40:20.867Z,72.94
2019-02-17T23:43:29.479Z,72.90
2019-02-17T23:46:48.408Z,72.66
2019-02-17T23:49:56.983Z,73.18
2019-02-17T23:53:05.614Z,73.39
2019-02-17T23:56:14.199Z,73.44
2019-02-17T23:59:22.895Z,73.37
